createdAt,value
2023-04-18T00:03:41.455Z,5.28
2023-04-18T00:07:42.920Z,4.25
2023-04-18T00:11:44.441Z,4.38
2023-04-18T00:15:46.289Z,4.60
2023-04-18T00:19:47.685Z,4.28
2023-04-18T00:23:49.117Z,4.32
2023-04-18T00:27:50.780Z,4.55
2023-04-18T00:31:52.329Z,4.32
2023-04-18T00:35:54.326Z,5.70
2023-04-18T00:39:55.757Z,5.47
2023-04-18T00:43:57.328Z,5.05
2023-04-18T00:47:58.844Z,5.75
2023-04-18T00:52:00.416Z,6.18
2023-04-18T00:56:02.433Z,4.78
2023-04-18T01:00:10.343Z,4.22
2023-04-18T01:04:11.986Z,4.68
2023-04-18T01:08:15.633Z,4.65
2023-04-18T01:12:17.038Z,3.95
2023-04-18T01:16:18.493Z,3.55
2023-04-18T01:20:21.370Z,3.60
2023-04-18T01:24:24.513Z,4.28
2023-04-18T01:28:27.590Z,4.47
2023-04-18T01:32:30.634Z,3.30
2023-04-18T01:36:32.697Z,3.70
2023-04-18T01:40:34.061Z,3.50
2023-04-18T01:44:35.655Z,3.75
2023-04-18T01:48:37.161Z,2.65
2023-04-18T01:52:38.606Z,3.38
2023-04-18T01:56:40.091Z,3.38
2023-04-18T02:00:41.603Z,3.08
2023-04-18T02:04:42.982Z,2.63
2023-04-18T02:08:45.273Z,2.22
2023-04-18T02:12:46.849Z,3.05
2023-04-18T02:16:48.304Z,2.95
2023-04-18T02:20:49.735Z,2.88
2023-04-18T02:24:51.154Z,2.58
2023-04-18T02:28:52.514Z,3.15
2023-04-18T02:32:57.106Z,2.20
2023-04-18T02:36:58.765Z,2.50
2023-04-18T02:41:00.141Z,3.65
2023-04-18T02:45:01.919Z,2.78
2023-04-18T02:49:03.401Z,2.50
2023-04-18T02:53:04.802Z,1.80
2023-04-18T02:57:19.582Z,2.25
2023-04-18T03:01:39.356Z,2.97
2023-04-18T03:05:44.762Z,2.65
2023-04-18T03:09:46.122Z,2.90
2023-04-18T03:13:55.027Z,2.13
2023-04-18T03:17:59.265Z,2.30
2023-04-18T03:22:04.308Z,2.60
2023-04-18T03:26:08.046Z,2.78
2023-04-18T03:30:11.813Z,2.55
2023-04-18T03:34:16.150Z,2.15
2023-04-18T03:38:19.105Z,2.65
2023-04-18T03:42:20.703Z,2.45
2023-04-18T03:46:24.569Z,2.70
2023-04-18T03:50:28.493Z,2.33
2023-04-18T03:54:31.512Z,2.35
2023-04-18T03:58:32.925Z,2.42
2023-04-18T04:02:34.585Z,2.70
2023-04-18T04:06:36.405Z,3.05
2023-04-18T04:10:38.193Z,2.83
2023-04-18T04:14:39.848Z,2.92
2023-04-18T04:18:41.610Z,3.15
2023-04-18T04:22:43.116Z,2.67
2023-04-18T04:26:44.685Z,2.80
2023-04-18T04:30:50.840Z,2.50
2023-04-18T04:34:53.515Z,1.98
2023-04-18T04:38:55.006Z,2.50
2023-04-18T04:43:05.694Z,2.50
2023-04-18T04:47:11.823Z,3.78
2023-04-18T04:51:14.520Z,3.03
2023-04-18T04:55:17.399Z,2.42
2023-04-18T04:59:18.761Z,3.70
2023-04-18T05:03:20.968Z,3.08
2023-04-18T05:07:22.564Z,3.17
2023-04-18T05:11:24.016Z,3.13
2023-04-18T05:15:25.420Z,3.67
2023-04-18T05:19:26.983Z,3.05
2023-04-18T05:23:28.342Z,3.47
2023-04-18T05:37:49.592Z,1.95
2023-04-18T05:41:50.942Z,2.90
2023-04-18T05:45:52.826Z,2.50
2023-04-18T05:49:55.056Z,3.67
2023-04-18T05:58:14.564Z,2.80
2023-04-18T06:02:16.260Z,2.63
2023-04-18T06:06:17.773Z,3.00
2023-04-18T06:10:19.229Z,2.63
2023-04-18T06:20:23.257Z,2.85
2023-04-18T06:41:09.538Z,4.82
2023-04-18T06:45:11.996Z,4.72
2023-04-18T06:49:13.406Z,5.13
2023-04-18T06:53:14.922Z,5.07
2023-04-18T06:57:16.345Z,4.60
2023-04-18T07:01:17.896Z,5.07
2023-04-18T07:05:19.520Z,5.28
2023-04-18T07:09:20.987Z,4.22
2023-04-18T07:13:22.355Z,3.50
2023-04-18T07:28:28.403Z,4.13
2023-04-18T07:32:29.862Z,3.75
2023-04-18T07:43:15.533Z,4.25
2023-04-18T07:47:30.412Z,4.78
2023-04-18T07:51:32.741Z,4.03
2023-04-18T07:55:34.151Z,4.15
2023-04-18T07:59:35.966Z,3.75
2023-04-18T08:03:37.448Z,5.22
2023-04-18T08:07:39.047Z,2.35
2023-04-18T08:11:41.266Z,3.53
2023-04-18T08:15:42.688Z,3.70
2023-04-18T08:19:45.539Z,3.67
2023-04-18T08:23:47.101Z,3.17
2023-04-18T08:27:48.568Z,3.30
2023-04-18T08:31:50.017Z,3.67
2023-04-18T08:35:51.823Z,4.20
2023-04-18T08:39:53.530Z,3.30
2023-04-18T08:43:56.977Z,3.50
2023-04-18T08:48:01.382Z,3.45
2023-04-18T08:52:13.423Z,3.00
2023-04-18T08:56:42.178Z,3.28
2023-04-18T09:00:50.134Z,3.47
2023-04-18T09:04:55.750Z,3.35
2023-04-18T09:09:04.104Z,4.05
2023-04-18T09:13:05.570Z,3.95
2023-04-18T09:17:07.225Z,3.40
2023-04-18T09:21:19.342Z,2.97
2023-04-18T09:25:35.644Z,3.70
2023-04-18T09:29:55.805Z,2.95
2023-04-18T09:34:00.588Z,2.78
2023-04-18T09:38:02.379Z,3.90
2023-04-18T09:42:03.965Z,3.40
2023-04-18T09:46:05.655Z,2.80
2023-04-18T09:50:09.436Z,2.65
2023-04-18T09:54:15.640Z,2.97
2023-04-18T09:58:22.099Z,3.35
2023-04-18T10:02:25.532Z,3.10
2023-04-18T10:06:28.862Z,3.30
2023-04-18T10:10:30.622Z,2.40
2023-04-18T10:14:33.378Z,2.30
2023-04-18T10:18:36.216Z,2.53
2023-04-18T10:22:37.614Z,2.38
2023-04-18T10:26:50.051Z,1.90
2023-04-18T10:31:02.682Z,2.78
2023-04-18T10:35:05.225Z,2.33
2023-04-18T10:39:23.371Z,2.92
2023-04-18T10:43:25.170Z,2.30
2023-04-18T10:47:26.972Z,2.20
2023-04-18T10:51:29.005Z,2.15
2023-04-18T10:55:31.195Z,2.33
2023-04-18T10:59:39.632Z,2.78
2023-04-18T11:03:41.283Z,1.83
2023-04-18T11:07:49.051Z,1.80
2023-04-18T11:12:10.571Z,2.13
2023-04-18T11:16:26.138Z,2.42
2023-04-18T11:20:29.079Z,2.50
2023-04-18T11:24:30.571Z,1.95
2023-04-18T11:28:32.858Z,1.38
2023-04-18T11:32:35.620Z,1.90
2023-04-18T11:36:38.680Z,1.98
2023-04-18T11:40:47.821Z,1.83
2023-04-18T11:44:49.309Z,1.67
2023-04-18T11:48:50.753Z,0.90
2023-04-18T11:52:53.940Z,1.73
2023-04-18T11:56:55.373Z,1.73
2023-04-18T12:00:58.016Z,2.00
2023-04-18T12:05:00.496Z,1.52
2023-04-18T12:09:03.495Z,1.67
2023-04-18T12:13:08.989Z,1.70
2023-04-18T12:17:12.954Z,1.98
2023-04-18T12:21:16.914Z,1.42
2023-04-18T12:25:25.253Z,2.35
2023-04-18T12:29:30.003Z,1.45
2023-04-18T12:33:32.789Z,3.85
2023-04-18T12:37:34.921Z,2.03
2023-04-18T12:41:36.693Z,3.00
2023-04-18T12:45:38.186Z,2.40
2023-04-18T12:49:39.573Z,1.65
2023-04-18T12:53:40.945Z,2.33
2023-04-18T12:57:43.136Z,3.20
2023-04-18T13:01:44.576Z,1.92
2023-04-18T13:05:46.020Z,1.73
2023-04-18T13:09:48.240Z,1.45
2023-04-18T13:13:49.611Z,1.88
2023-04-18T13:17:51.194Z,2.28
2023-04-18T13:21:53.256Z,2.15
2023-04-18T13:25:54.711Z,2.33
2023-04-18T13:29:57.194Z,1.88
2023-04-18T13:33:58.638Z,1.50
2023-04-18T13:38:00.037Z,1.40
2023-04-18T13:42:04.612Z,1.50
2023-04-18T13:46:06.260Z,1.33
2023-04-18T13:50:08.354Z,1.00
2023-04-18T13:54:09.950Z,1.25
2023-04-18T13:58:11.404Z,1.33
2023-04-18T14:02:12.814Z,1.92
2023-04-18T14:06:14.286Z,1.60
2023-04-18T14:10:15.842Z,1.02
2023-04-18T14:14:17.215Z,1.77
2023-04-18T14:18:21.582Z,2.22
2023-04-18T14:22:23.018Z,0.98
2023-04-18T14:26:24.469Z,1.77
2023-04-18T14:30:25.922Z,1.40
2023-04-18T14:34:27.308Z,2.28
2023-04-18T14:38:29.015Z,1.85
2023-04-18T14:42:30.413Z,1.90
2023-04-18T14:46:31.855Z,1.65
2023-04-18T14:50:33.234Z,1.52
2023-04-18T14:54:34.593Z,1.95
2023-04-18T14:58:36.214Z,1.73
2023-04-18T15:02:38.050Z,1.40
2023-04-18T15:06:40.635Z,1.15
2023-04-18T15:10:42.856Z,1.73
2023-04-18T15:14:44.214Z,2.20
2023-04-18T15:18:46.269Z,1.67
2023-04-18T15:22:48.780Z,2.15
2023-04-18T15:26:50.754Z,1.58
2023-04-18T15:30:52.195Z,2.25
2023-04-18T15:34:53.585Z,2.22
2023-04-18T15:38:54.968Z,1.42
2023-04-18T15:42:57.716Z,1.88
2023-04-18T15:47:01.106Z,1.98
2023-04-18T15:51:03.965Z,2.33
2023-04-18T15:55:06.214Z,1.88
2023-04-18T15:59:08.777Z,2.17
2023-04-18T16:03:10.482Z,1.92
2023-04-18T16:07:12.383Z,1.80
2023-04-18T16:11:15.062Z,1.75
2023-04-18T16:15:16.423Z,1.73
2023-04-18T16:19:17.791Z,1.98
2023-04-18T16:23:20.485Z,1.50
2023-04-18T16:27:21.901Z,2.35
2023-04-18T16:31:23.505Z,2.10
2023-04-18T16:35:25.010Z,1.88
2023-04-18T16:39:27.988Z,1.77
2023-04-18T16:43:31.001Z,2.33
2023-04-18T16:47:32.480Z,1.83
2023-04-18T16:51:36.147Z,1.50
2023-04-18T16:55:37.536Z,1.58
2023-04-18T16:59:38.938Z,1.27
2023-04-18T17:03:40.915Z,2.17
2023-04-18T17:07:45.005Z,3.90
2023-04-18T17:11:46.482Z,2.17
2023-04-18T17:15:47.962Z,1.73
2023-04-18T17:19:49.477Z,1.13
2023-04-18T17:23:51.049Z,2.53
2023-04-18T17:27:52.510Z,1.25
2023-04-18T17:31:53.987Z,1.83
2023-04-18T17:35:55.429Z,1.40
2023-04-18T17:39:58.299Z,1.48
2023-04-18T17:44:00.441Z,1.77
2023-04-18T17:48:02.977Z,2.22
2023-04-18T17:52:04.636Z,1.92
2023-04-18T17:56:06.156Z,1.13
2023-04-18T18:00:11.126Z,1.30
2023-04-18T18:04:15.576Z,1.42
2023-04-18T18:08:17.212Z,1.50
2023-04-18T18:12:18.950Z,1.52
2023-04-18T18:16:20.988Z,1.15
2023-04-18T18:20:22.935Z,1.55
2023-04-18T18:24:26.739Z,2.22
2023-04-18T18:28:28.741Z,1.48
2023-04-18T18:32:30.278Z,1.13
2023-04-18T18:36:31.836Z,0.98
2023-04-18T18:40:33.284Z,0.80
2023-04-18T18:44:34.802Z,1.13
2023-04-18T18:48:38.147Z,1.27
2023-04-18T18:52:43.122Z,1.10
2023-04-18T18:56:45.263Z,1.10
2023-04-18T19:00:46.866Z,0.80
2023-04-18T19:04:48.367Z,0.85
2023-04-18T19:08:49.881Z,1.05
2023-04-18T19:12:51.266Z,1.17
2023-04-18T19:16:53.034Z,1.17
2023-04-18T19:20:54.450Z,1.23
2023-04-18T19:24:56.275Z,1.10
2023-04-18T19:28:57.663Z,1.30
2023-04-18T19:32:59.523Z,1.42
2023-04-18T19:37:01.267Z,0.95
2023-04-18T19:41:02.703Z,1.08
2023-04-18T19:45:05.349Z,1.10
2023-04-18T19:49:06.962Z,1.05
2023-04-18T19:53:08.891Z,0.88
2023-04-18T19:57:10.437Z,0.85
2023-04-18T20:01:21.231Z,1.27
2023-04-18T20:05:22.791Z,1.30
2023-04-18T20:09:24.543Z,0.65
2023-04-18T20:13:25.995Z,1.30
2023-04-18T20:17:30.161Z,0.90
2023-04-18T20:21:31.812Z,1.13
2023-04-18T20:25:33.892Z,1.23
2023-04-18T20:29:35.268Z,1.13
2023-04-18T20:33:37.790Z,1.00
2023-04-18T20:37:39.157Z,0.88
2023-04-18T20:41:46.460Z,1.00
2023-04-18T20:45:50.782Z,0.95
2023-04-18T20:49:52.241Z,1.35
2023-04-18T20:53:53.604Z,1.00
2023-04-18T20:57:54.954Z,1.00
2023-04-18T21:01:56.457Z,0.93
2023-04-18T21:05:57.954Z,1.23
2023-04-18T21:09:59.295Z,1.05
2023-04-18T21:14:00.668Z,1.20
2023-04-18T21:18:02.338Z,0.88
2023-04-18T21:22:04.223Z,0.88
2023-04-18T21:26:05.783Z,1.48
2023-04-18T21:30:07.747Z,0.88
2023-04-18T21:34:10.146Z,1.30
2023-04-18T21:38:11.637Z,0.93
2023-04-18T21:42:13.002Z,0.90
2023-04-18T21:46:14.920Z,0.57
2023-04-18T21:50:16.533Z,0.82
2023-04-18T21:54:17.929Z,0.75
2023-04-18T21:58:19.322Z,1.08
2023-04-18T22:02:21.153Z,1.13
2023-04-18T22:06:23.215Z,0.75
2023-04-18T22:10:25.060Z,0.60
2023-04-18T22:14:28.074Z,0.77
2023-04-18T22:18:33.666Z,0.75
2023-04-18T22:22:35.354Z,0.80
2023-04-18T22:26:36.705Z,0.75
2023-04-18T22:30:38.251Z,0.95
2023-04-18T22:34:39.754Z,1.00
2023-04-18T22:38:41.100Z,0.52
2023-04-18T22:42:43.360Z,0.50
2023-04-18T22:46:45.534Z,1.02
2023-04-18T22:50:47.270Z,0.63
2023-04-18T22:54:48.611Z,1.00
2023-04-18T22:58:50.007Z,0.95
2023-04-18T23:02:52.486Z,0.73
2023-04-18T23:06:54.057Z,1.13
2023-04-18T23:10:55.507Z,0.73
2023-04-18T23:14:56.899Z,0.63
2023-04-18T23:18:58.257Z,0.85
2023-04-18T23:22:59.624Z,0.57
2023-04-18T23:27:01.612Z,0.95
2023-04-18T23:31:03.057Z,0.77
2023-04-18T23:35:05.989Z,0.88
2023-04-18T23:39:08.592Z,0.30
2023-04-18T23:43:09.927Z,0.85
2023-04-18T23:47:11.403Z,0.68
2023-04-18T23:51:12.933Z,0.80
2023-04-18T23:55:14.298Z,0.52
2023-04-18T23:59:15.793Z,0.77
